sensor_id;sensor_type;location;lat;lon;timestamp;pressure;altitude;pressure_sealevel;temperature;humidity
71105;BME280;58760;48.716;8.962;2023-02-03T00:02:10;97736.19;;;4.48;89.88
71105;BME280;58760;48.716;8.962;2023-02-03T00:04:35;97728.31;;;4.48;90.24
71105;BME280;58760;48.716;8.962;2023-02-03T00:07:01;97737.97;;;4.48;90.20
71105;BME280;58760;48.716;8.962;2023-02-03T00:09:26;97728.53;;;4.45;90.30
71105;BME280;58760;48.716;8.962;2023-02-03T00:11:53;97727.47;;;4.48;90.34
71105;BME280;58760;48.716;8.962;2023-02-03T00:14:18;97722.31;;;4.46;90.28
71105;BME280;58760;48.716;8.962;2023-02-03T00:16:43;97720.81;;;4.42;90.16
71105;BME280;58760;48.716;8.962;2023-02-03T00:19:08;97715.47;;;4.44;90.12
71105;BME280;58760;48.716;8.962;2023-02-03T00:21:34;97737.44;;;4.43;90.18
71105;BME280;58760;48.716;8.962;2023-02-03T00:23:59;97718.53;;;4.38;90.11
71105;BME280;58760;48.716;8.962;2023-02-03T00:26:25;97723.44;;;4.42;90.20
71105;BME280;58760;48.716;8.962;2023-02-03T00:28:52;97712.94;;;4.42;89.47
71105;BME280;58760;48.716;8.962;2023-02-03T00:31:20;97704.97;;;4.44;89.63
71105;BME280;58760;48.716;8.962;2023-02-03T00:33:46;97713.38;;;4.36;89.76
71105;BME280;58760;48.716;8.962;2023-02-03T00:36:12;97716.00;;;4.36;89.69
71105;BME280;58760;48.716;8.962;2023-02-03T00:38:38;97706.03;;;4.41;89.76
71105;BME280;58760;48.716;8.962;2023-02-03T00:41:03;97714.19;;;4.49;89.28
71105;BME280;58760;48.716;8.962;2023-02-03T00:43:29;97713.06;;;4.41;89.18
71105;BME280;58760;48.716;8.962;2023-02-03T00:45:54;97716.63;;;4.52;88.87
71105;BME280;58760;48.716;8.962;2023-02-03T00:48:20;97721.25;;;4.49;89.05
71105;BME280;58760;48.716;8.962;2023-02-03T00:50:46;97732.50;;;4.51;89.00
71105;BME280;58760;48.716;8.962;2023-02-03T00:53:11;97733.03;;;4.43;88.99
71105;BME280;58760;48.716;8.962;2023-02-03T00:55:36;97731.25;;;4.44;88.86
71105;BME280;58760;48.716;8.962;2023-02-03T00:58:02;97720.72;;;4.44;88.95
71105;BME280;58760;48.716;8.962;2023-02-03T01:00:27;97716.75;;;4.51;88.83
71105;BME280;58760;48.716;8.962;2023-02-03T01:02:52;97726.81;;;4.57;88.48
71105;BME280;58760;48.716;8.962;2023-02-03T01:05:18;97734.09;;;4.53;88.32
71105;BME280;58760;48.716;8.962;2023-02-03T01:07:43;97736.72;;;4.53;88.64
71105;BME280;58760;48.716;8.962;2023-02-03T01:10:09;97728.31;;;4.61;88.59
71105;BME280;58760;48.716;8.962;2023-02-03T01:12:34;97739.66;;;4.61;88.23
71105;BME280;58760;48.716;8.962;2023-02-03T01:15:00;97729.88;;;4.63;88.96
71105;BME280;58760;48.716;8.962;2023-02-03T01:17:28;97730.06;;;4.73;88.58
71105;BME280;58760;48.716;8.962;2023-02-03T01:19:54;97725.97;;;4.69;88.60
71105;BME280;58760;48.716;8.962;2023-02-03T01:22:19;97711.16;;;4.68;88.27
71105;BME280;58760;48.716;8.962;2023-02-03T01:24:45;97702.94;;;4.60;88.83
71105;BME280;58760;48.716;8.962;2023-02-03T01:27:10;97682.97;;;4.70;88.66
71105;BME280;58760;48.716;8.962;2023-02-03T01:29:36;97682.66;;;4.62;88.85
71105;BME280;58760;48.716;8.962;2023-02-03T01:32:01;97688.09;;;4.71;89.20
71105;BME280;58760;48.716;8.962;2023-02-03T01:34:27;97690.22;;;4.66;89.24
71105;BME280;58760;48.716;8.962;2023-02-03T01:36:52;97711.34;;;4.65;89.29
71105;BME280;58760;48.716;8.962;2023-02-03T01:39:18;97700.44;;;4.71;89.59
71105;BME280;58760;48.716;8.962;2023-02-03T01:41:43;97692.53;;;4.71;89.70
71105;BME280;58760;48.716;8.962;2023-02-03T01:44:34;97684.13;;;4.66;89.79
71105;BME280;58760;48.716;8.962;2023-02-03T01:47:02;97687.09;;;4.61;90.36
71105;BME280;58760;48.716;8.962;2023-02-03T01:49:34;97702.84;;;4.61;90.34
71105;BME280;58760;48.716;8.962;2023-02-03T01:52:00;97692.75;;;4.68;90.18
71105;BME280;58760;48.716;8.962;2023-02-03T01:54:30;97702.84;;;4.74;90.02
71105;BME280;58760;48.716;8.962;2023-02-03T01:57:21;97707.13;;;4.75;89.83
71105;BME280;58760;48.716;8.962;2023-02-03T01:59:48;97711.66;;;4.73;90.10
71105;BME280;58760;48.716;8.962;2023-02-03T02:02:15;97703.78;;;4.73;89.83
71105;BME280;58760;48.716;8.962;2023-02-03T02:05:12;97695.03;;;4.72;89.79
71105;BME280;58760;48.716;8.962;2023-02-03T02:07:40;97684.31;;;4.75;90.07
71105;BME280;58760;48.716;8.962;2023-02-03T02:10:07;97693.03;;;4.76;89.94
71105;BME280;58760;48.716;8.962;2023-02-03T02:12:32;97679.88;;;4.76;89.96
71105;BME280;58760;48.716;8.962;2023-02-03T02:14:58;97668.66;;;4.74;89.93
71105;BME280;58760;48.716;8.962;2023-02-03T02:17:40;97656.53;;;4.84;90.09
71105;BME280;58760;48.716;8.962;2023-02-03T02:34:51;97633.66;;;4.61;91.41
71105;BME280;58760;48.716;8.962;2023-02-03T02:40:16;97621.19;;;4.52;91.88
71105;BME280;58760;48.716;8.962;2023-02-03T02:43:17;97629.66;;;4.55;91.75
71105;BME280;58760;48.716;8.962;2023-02-03T02:50:54;97607.59;;;4.58;91.64
71105;BME280;58760;48.716;8.962;2023-02-03T02:53:23;97591.84;;;4.58;91.80
71105;BME280;58760;48.716;8.962;2023-02-03T02:55:52;97599.50;;;4.61;91.66
71105;BME280;58760;48.716;8.962;2023-02-03T02:58:18;97616.53;;;4.68;91.43
71105;BME280;58760;48.716;8.962;2023-02-03T03:00:45;97625.34;;;4.67;90.70
71105;BME280;58760;48.716;8.962;2023-02-03T03:03:22;97632.16;;;4.69;90.85
71105;BME280;58760;48.716;8.962;2023-02-03T03:06:01;97631.00;;;4.73;90.39
71105;BME280;58760;48.716;8.962;2023-02-03T03:08:40;97630.88;;;4.75;90.59
71105;BME280;58760;48.716;8.962;2023-02-03T03:11:08;97624.59;;;4.65;90.40
71105;BME280;58760;48.716;8.962;2023-02-03T03:13:39;97618.78;;;4.72;90.00
71105;BME280;58760;48.716;8.962;2023-02-03T03:16:08;97616.16;;;4.72;89.69
71105;BME280;58760;48.716;8.962;2023-02-03T03:18:40;97607.63;;;4.82;89.39
71105;BME280;58760;48.716;8.962;2023-02-03T03:21:11;97601.72;;;4.78;89.24
71105;BME280;58760;48.716;8.962;2023-02-03T03:23:39;97606.50;;;4.73;88.91
71105;BME280;58760;48.716;8.962;2023-02-03T03:28:51;97602.53;;;4.67;88.94
71105;BME280;58760;48.716;8.962;2023-02-03T03:31:18;97589.78;;;4.74;89.10
71105;BME280;58760;48.716;8.962;2023-02-03T03:33:45;97589.25;;;4.69;88.86
71105;BME280;58760;48.716;8.962;2023-02-03T03:36:39;97614.28;;;4.74;88.89
71105;BME280;58760;48.716;8.962;2023-02-03T03:42:09;97636.97;;;4.75;88.43
71105;BME280;58760;48.716;8.962;2023-02-03T03:44:51;97631.00;;;4.73;88.70
71105;BME280;58760;48.716;8.962;2023-02-03T03:47:34;97637.19;;;4.72;88.36
71105;BME280;58760;48.716;8.962;2023-02-03T03:50:04;97630.56;;;4.80;88.56
71105;BME280;58760;48.716;8.962;2023-02-03T03:52:34;97646.78;;;4.73;88.46
71105;BME280;58760;48.716;8.962;2023-02-03T03:55:02;97652.66;;;4.77;87.99
71105;BME280;58760;48.716;8.962;2023-02-03T03:57:35;97656.94;;;4.78;88.46
71105;BME280;58760;48.716;8.962;2023-02-03T04:00:04;97660.63;;;4.75;88.27
71105;BME280;58760;48.716;8.962;2023-02-03T04:02:35;97672.00;;;4.76;88.39
71105;BME280;58760;48.716;8.962;2023-02-03T04:05:03;97675.69;;;4.73;88.75
71105;BME280;58760;48.716;8.962;2023-02-03T04:07:43;97686.41;;;4.83;88.20
71105;BME280;58760;48.716;8.962;2023-02-03T04:12:40;97685.34;;;4.86;88.41
71105;BME280;58760;48.716;8.962;2023-02-03T04:15:06;97686.00;;;4.77;88.38
71105;BME280;58760;48.716;8.962;2023-02-03T04:17:31;97675.28;;;4.67;89.23
71105;BME280;58760;48.716;8.962;2023-02-03T04:19:58;97670.72;;;4.82;89.45
71105;BME280;58760;48.716;8.962;2023-02-03T04:22:23;97677.25;;;4.76;89.50
71105;BME280;58760;48.716;8.962;2023-02-03T04:24:48;97671.59;;;4.69;89.63
71105;BME280;58760;48.716;8.962;2023-02-03T04:27:14;97681.84;;;4.61;90.70
71105;BME280;58760;48.716;8.962;2023-02-03T04:29:39;97683.63;;;4.61;91.18
71105;BME280;58760;48.716;8.962;2023-02-03T04:32:05;97697.88;;;4.69;91.03
71105;BME280;58760;48.716;8.962;2023-02-03T04:34:30;97684.66;;;4.71;91.46
71105;BME280;58760;48.716;8.962;2023-02-03T04:36:55;97671.91;;;4.65;91.45
71105;BME280;58760;48.716;8.962;2023-02-03T04:39:20;97662.44;;;4.75;91.78
71105;BME280;58760;48.716;8.962;2023-02-03T04:41:46;97669.19;;;4.66;92.27
71105;BME280;58760;48.716;8.962;2023-02-03T04:44:12;97664.16;;;4.63;92.99
71105;BME280;58760;48.716;8.962;2023-02-03T04:46:37;97667.31;;;4.56;93.31
71105;BME280;58760;48.716;8.962;2023-02-03T04:49:02;97669.00;;;4.57;93.77
71105;BME280;58760;48.716;8.962;2023-02-03T04:51:28;97659.22;;;4.46;93.88
71105;BME280;58760;48.716;8.962;2023-02-03T04:53:53;97656.16;;;4.52;94.44
71105;BME280;58760;48.716;8.962;2023-02-03T04:56:19;97651.31;;;4.59;94.54
71105;BME280;58760;48.716;8.962;2023-02-03T04:58:44;97657.00;;;4.53;94.51
71105;BME280;58760;48.716;8.962;2023-02-03T05:01:10;97654.91;;;4.58;94.74
71105;BME280;58760;48.716;8.962;2023-02-03T05:03:35;97652.28;;;4.58;94.82
71105;BME280;58760;48.716;8.962;2023-02-03T05:06:01;97645.78;;;4.51;94.82
71105;BME280;58760;48.716;8.962;2023-02-03T05:08:28;97650.81;;;4.54;95.18
71105;BME280;58760;48.716;8.962;2023-02-03T05:10:54;97640.84;;;4.46;94.67
71105;BME280;58760;48.716;8.962;2023-02-03T05:13:19;97642.94;;;4.54;94.80
71105;BME280;58760;48.716;8.962;2023-02-03T05:15:45;97643.16;;;4.51;94.57
71105;BME280;58760;48.716;8.962;2023-02-03T05:18:10;97643.16;;;4.51;94.38
71105;BME280;58760;48.716;8.962;2023-02-03T05:20:36;97648.19;;;4.54;93.78
71105;BME280;58760;48.716;8.962;2023-02-03T05:23:01;97662.78;;;4.70;93.87
71105;BME280;58760;48.716;8.962;2023-02-03T05:25:26;97663.44;;;4.61;93.22
71105;BME280;58760;48.716;8.962;2023-02-03T05:27:52;97669.28;;;4.65;93.23
71105;BME280;58760;48.716;8.962;2023-02-03T05:30:17;97672.97;;;4.62;92.91
71105;BME280;58760;48.716;8.962;2023-02-03T05:32:43;97674.03;;;4.60;93.20
71105;BME280;58760;48.716;8.962;2023-02-03T05:35:08;97675.06;;;4.70;92.73
71105;BME280;58760;48.716;8.962;2023-02-03T05:37:33;97665.72;;;4.66;92.70
71105;BME280;58760;48.716;8.962;2023-02-03T05:39:58;97674.75;;;4.62;92.52
71105;BME280;58760;48.716;8.962;2023-02-03T05:42:47;97675.50;;;4.64;92.99
71105;BME280;58760;48.716;8.962;2023-02-03T05:45:13;97684.78;;;4.57;92.97
71105;BME280;58760;48.716;8.962;2023-02-03T05:47:38;97689.41;;;4.53;93.09
71105;BME280;58760;48.716;8.962;2023-02-03T05:50:04;97677.06;;;4.66;93.22
71105;BME280;58760;48.716;8.962;2023-02-03T05:52:29;97661.84;;;4.59;92.37
71105;BME280;58760;48.716;8.962;2023-02-03T05:54:55;97660.41;;;4.55;92.71
71105;BME280;58760;48.716;8.962;2023-02-03T05:57:20;97662.06;;;4.56;92.68
71105;BME280;58760;48.716;8.962;2023-02-03T05:59:45;97665.09;;;4.62;92.67
71105;BME280;58760;48.716;8.962;2023-02-03T06:02:11;97657.19;;;4.62;92.10
71105;BME280;58760;48.716;8.962;2023-02-03T06:04:36;97657.72;;;4.67;91.71
71105;BME280;58760;48.716;8.962;2023-02-03T06:07:02;97663.84;;;4.68;91.66
71105;BME280;58760;48.716;8.962;2023-02-03T06:09:27;97660.38;;;4.67;91.65
71105;BME280;58760;48.716;8.962;2023-02-03T06:11:52;97645.44;;;4.68;91.69
71105;BME280;58760;48.716;8.962;2023-02-03T06:14:18;97652.34;;;4.69;91.25
71105;BME280;58760;48.716;8.962;2023-02-03T06:16:43;97663.63;;;4.71;90.87
71105;BME280;58760;48.716;8.962;2023-02-03T06:19:09;97648.06;;;4.68;91.00
71105;BME280;58760;48.716;8.962;2023-02-03T06:21:34;97637.44;;;4.69;91.04
71105;BME280;58760;48.716;8.962;2023-02-03T06:23:59;97638.53;;;4.78;90.61
71105;BME280;58760;48.716;8.962;2023-02-03T06:26:25;97633.94;;;4.69;90.59
71105;BME280;58760;48.716;8.962;2023-02-03T06:28:50;97632.25;;;4.81;90.25
71105;BME280;58760;48.716;8.962;2023-02-03T06:31:15;97637.09;;;4.74;90.09
71105;BME280;58760;48.716;8.962;2023-02-03T06:33:41;97629.63;;;4.81;90.20
71105;BME280;58760;48.716;8.962;2023-02-03T06:36:06;97636.66;;;4.80;90.05
71105;BME280;58760;48.716;8.962;2023-02-03T06:38:32;97649.50;;;4.72;89.87
71105;BME280;58760;48.716;8.962;2023-02-03T06:40:57;97641.63;;;4.72;90.08
71105;BME280;58760;48.716;8.962;2023-02-03T06:43:22;97655.06;;;4.80;90.20
71105;BME280;58760;48.716;8.962;2023-02-03T06:45:48;97659.31;;;4.70;90.25
71105;BME280;58760;48.716;8.962;2023-02-03T06:48:13;97650.25;;;4.74;90.52
71105;BME280;58760;48.716;8.962;2023-02-03T06:50:40;97645.22;;;4.71;90.81
71105;BME280;58760;48.716;8.962;2023-02-03T06:53:06;97632.59;;;4.63;90.74
71105;BME280;58760;48.716;8.962;2023-02-03T06:55:31;97636.31;;;4.61;91.35
71105;BME280;58760;48.716;8.962;2023-02-03T06:57:57;97642.22;;;4.52;91.76
71105;BME280;58760;48.716;8.962;2023-02-03T07:00:22;97630.47;;;4.68;92.13
71105;BME280;58760;48.716;8.962;2023-02-03T07:02:55;97634.38;;;4.63;91.64
71105;BME280;58760;48.716;8.962;2023-02-03T07:05:22;97626.28;;;4.66;91.84
71105;BME280;58760;48.716;8.962;2023-02-03T07:07:47;97625.44;;;4.65;92.29
71105;BME280;58760;48.716;8.962;2023-02-03T07:10:13;97617.69;;;4.64;92.16
71105;BME280;58760;48.716;8.962;2023-02-03T07:12:38;97624.84;;;4.49;92.62
71105;BME280;58760;48.716;8.962;2023-02-03T07:15:04;97615.63;;;4.44;93.39
71105;BME280;58760;48.716;8.962;2023-02-03T07:17:30;97620.88;;;4.44;93.70
71105;BME280;58760;48.716;8.962;2023-02-03T07:19:55;97635.16;;;4.40;93.96
71105;BME280;58760;48.716;8.962;2023-02-03T07:22:21;97635.16;;;4.40;93.93
71105;BME280;58760;48.716;8.962;2023-02-03T07:24:46;97631.81;;;4.38;94.20
71105;BME280;58760;48.716;8.962;2023-02-03T07:27:11;97624.16;;;4.35;94.32
71105;BME280;58760;48.716;8.962;2023-02-03T07:29:37;97619.84;;;4.34;94.50
71105;BME280;58760;48.716;8.962;2023-02-03T07:32:02;97616.50;;;4.19;94.42
71105;BME280;58760;48.716;8.962;2023-02-03T07:34:28;97619.16;;;4.06;94.70
71105;BME280;58760;48.716;8.962;2023-02-03T07:36:53;97617.53;;;4.16;94.64
71105;BME280;58760;48.716;8.962;2023-02-03T07:39:19;97610.41;;;4.18;94.43
71105;BME280;58760;48.716;8.962;2023-02-03T07:41:44;97613.34;;;4.14;94.51
71105;BME280;58760;48.716;8.962;2023-02-03T07:44:09;97609.34;;;4.21;93.78
71105;BME280;58760;48.716;8.962;2023-02-03T07:46:35;97629.22;;;4.25;93.99
71105;BME280;58760;48.716;8.962;2023-02-03T07:49:04;97636.47;;;4.21;94.53
71105;BME280;58760;48.716;8.962;2023-02-03T07:51:30;97648.97;;;4.31;95.14
71105;BME280;58760;48.716;8.962;2023-02-03T07:53:55;97648.75;;;4.34;95.35
71105;BME280;58760;48.716;8.962;2023-02-03T07:56:20;97653.06;;;4.35;94.88
71105;BME280;58760;48.716;8.962;2023-02-03T07:58:46;97661.75;;;4.48;94.25
71105;BME280;58760;48.716;8.962;2023-02-03T08:01:13;97662.28;;;4.53;94.59
71105;BME280;58760;48.716;8.962;2023-02-03T08:03:40;97675.41;;;4.53;93.60
71105;BME280;58760;48.716;8.962;2023-02-03T08:06:05;97671.75;;;4.43;92.99
71105;BME280;58760;48.716;8.962;2023-02-03T08:08:31;97700.31;;;4.60;93.22
71105;BME280;58760;48.716;8.962;2023-02-03T08:10:56;97691.41;;;4.50;93.46
71105;BME280;58760;48.716;8.962;2023-02-03T08:13:22;97696.97;;;4.58;93.61
71105;BME280;58760;48.716;8.962;2023-02-03T08:15:47;97683.09;;;4.56;94.02
71105;BME280;58760;48.716;8.962;2023-02-03T08:18:12;97685.63;;;4.57;93.31
71105;BME280;58760;48.716;8.962;2023-02-03T08:20:38;97693.38;;;4.59;93.63
71105;BME280;58760;48.716;8.962;2023-02-03T08:23:04;97683.72;;;4.59;93.96
71105;BME280;58760;48.716;8.962;2023-02-03T08:25:30;97675.50;;;4.64;93.86
71105;BME280;58760;48.716;8.962;2023-02-03T08:27:55;97674.03;;;4.60;93.42
71105;BME280;58760;48.716;8.962;2023-02-03T08:30:21;97695.69;;;4.63;94.00
71105;BME280;58760;48.716;8.962;2023-02-03T08:32:46;97700.44;;;4.71;94.22
71105;BME280;58760;48.716;8.962;2023-02-03T08:35:12;97706.41;;;4.73;94.33
71105;BME280;58760;48.716;8.962;2023-02-03T08:37:37;97722.69;;;4.78;94.38
71105;BME280;58760;48.716;8.962;2023-02-03T08:40:04;97711.13;;;4.81;94.18
71105;BME280;58760;48.716;8.962;2023-02-03T08:42:29;97707.75;;;4.79;94.38
71105;BME280;58760;48.716;8.962;2023-02-03T08:44:55;97698.41;;;4.87;94.18
71105;BME280;58760;48.716;8.962;2023-02-03T08:47:20;97716.91;;;4.86;94.66
71105;BME280;58760;48.716;8.962;2023-02-03T08:49:45;97716.69;;;4.89;94.76
71105;BME280;58760;48.716;8.962;2023-02-03T08:52:12;97713.38;;;4.98;94.47
71105;BME280;58760;48.716;8.962;2023-02-03T08:54:38;97711.38;;;5.01;94.28
71105;BME280;58760;48.716;8.962;2023-02-03T08:57:04;97706.91;;;5.14;93.76
71105;BME280;58760;48.716;8.962;2023-02-03T08:59:30;97695.56;;;5.14;93.98
71105;BME280;58760;48.716;8.962;2023-02-03T09:01:55;97693.09;;;5.23;94.03
71105;BME280;58760;48.716;8.962;2023-02-03T09:04:21;97705.25;;;5.13;93.29
71105;BME280;58760;48.716;8.962;2023-02-03T09:06:52;97703.63;;;5.23;94.02
71105;BME280;58760;48.716;8.962;2023-02-03T09:09:22;97711.38;;;5.38;94.17
71105;BME280;58760;48.716;8.962;2023-02-03T09:11:47;97713.16;;;5.37;93.73
71105;BME280;58760;48.716;8.962;2023-02-03T09:14:13;97698.97;;;5.51;93.75
71105;BME280;58760;48.716;8.962;2023-02-03T09:16:38;97684.75;;;5.53;92.92
71105;BME280;58760;48.716;8.962;2023-02-03T09:19:04;97688.75;;;5.70;93.18
71105;BME280;58760;48.716;8.962;2023-02-03T09:21:29;97683.41;;;5.82;92.47
71105;BME280;58760;48.716;8.962;2023-02-03T09:23:55;97681.16;;;5.78;91.52
71105;BME280;58760;48.716;8.962;2023-02-03T09:26:20;97676.72;;;5.78;91.84
71105;BME280;58760;48.716;8.962;2023-02-03T09:28:46;97675.41;;;5.84;91.88
71105;BME280;58760;48.716;8.962;2023-02-03T09:31:14;97669.72;;;5.90;92.21
71105;BME280;58760;48.716;8.962;2023-02-03T09:33:42;97686.75;;;5.97;91.46
71105;BME280;58760;48.716;8.962;2023-02-03T09:36:09;97696.81;;;6.03;91.16
71105;BME280;58760;48.716;8.962;2023-02-03T09:38:34;97694.66;;;5.97;90.78
71105;BME280;58760;48.716;8.962;2023-02-03T09:41:06;97680.00;;;5.93;90.62
71105;BME280;58760;48.716;8.962;2023-02-03T09:43:43;97677.28;;;5.95;90.35
71105;BME280;58760;48.716;8.962;2023-02-03T09:46:15;97687.13;;;6.04;90.33
71105;BME280;58760;48.716;8.962;2023-02-03T09:48:51;97703.31;;;6.21;90.85
71105;BME280;58760;48.716;8.962;2023-02-03T09:51:24;97688.22;;;6.23;89.50
71105;BME280;58760;48.716;8.962;2023-02-03T09:53:57;97697.56;;;6.16;89.71
71105;BME280;58760;48.716;8.962;2023-02-03T09:56:31;97697.19;;;6.10;89.82
71105;BME280;58760;48.716;8.962;2023-02-03T09:58:56;97690.97;;;6.11;90.14
71105;BME280;58760;48.716;8.962;2023-02-03T10:01:24;97689.31;;;6.21;90.06
71105;BME280;58760;48.716;8.962;2023-02-03T10:19:46;97667.50;;;6.30;88.08
71105;BME280;58760;48.716;8.962;2023-02-03T10:22:16;97664.97;;;6.28;88.65
71105;BME280;58760;48.716;8.962;2023-02-03T10:27:37;97690.88;;;6.35;88.50
71105;BME280;58760;48.716;8.962;2023-02-03T10:30:17;97706.69;;;6.35;88.47
71105;BME280;58760;48.716;8.962;2023-02-03T10:32:43;97699.84;;;6.32;88.70
71105;BME280;58760;48.716;8.962;2023-02-03T10:35:12;97695.53;;;6.31;87.76
71105;BME280;58760;48.716;8.962;2023-02-03T10:37:47;97696.13;;;6.35;87.90
71105;BME280;58760;48.716;8.962;2023-02-03T10:40:14;97690.63;;;6.38;88.35
71105;BME280;58760;48.716;8.962;2023-02-03T10:42:42;97708.63;;;6.44;88.08
71105;BME280;58760;48.716;8.962;2023-02-03T10:45:36;97700.13;;;6.51;88.43
71105;BME280;58760;48.716;8.962;2023-02-03T10:48:02;97690.88;;;6.57;87.13
71105;BME280;58760;48.716;8.962;2023-02-03T10:50:29;97675.31;;;6.65;87.61
71105;BME280;58760;48.716;8.962;2023-02-03T10:55:48;97660.09;;;6.68;86.65
71105;BME280;58760;48.716;8.962;2023-02-03T10:58:25;97642.47;;;6.69;86.16
71105;BME280;58760;48.716;8.962;2023-02-03T11:00:57;97632.88;;;6.79;86.67
71105;BME280;58760;48.716;8.962;2023-02-03T11:03:28;97629.72;;;6.74;85.55
71105;BME280;58760;48.716;8.962;2023-02-03T11:06:14;97624.94;;;6.68;86.45
71105;BME280;58760;48.716;8.962;2023-02-03T11:08:45;97620.88;;;6.64;85.31
71105;BME280;58760;48.716;8.962;2023-02-03T11:13:44;97632.66;;;6.60;85.35
71105;BME280;58760;48.716;8.962;2023-02-03T11:16:16;97628.44;;;6.68;85.86
71105;BME280;58760;48.716;8.962;2023-02-03T11:18:52;97634.56;;;6.69;84.99
71105;BME280;58760;48.716;8.962;2023-02-03T11:21:31;97620.72;;;6.76;85.41
71105;BME280;58760;48.716;8.962;2023-02-03T11:24:05;97612.09;;;6.86;84.08
71105;BME280;58760;48.716;8.962;2023-02-03T11:29:05;97623.72;;;6.83;84.63
71105;BME280;58760;48.716;8.962;2023-02-03T11:31:34;97617.50;;;6.84;84.47
71105;BME280;58760;48.716;8.962;2023-02-03T11:34:15;97622.28;;;6.90;83.83
71105;BME280;58760;48.716;8.962;2023-02-03T11:36:41;97609.94;;;6.91;84.00
71105;BME280;58760;48.716;8.962;2023-02-03T11:39:16;97604.06;;;6.87;84.18
71105;BME280;58760;48.716;8.962;2023-02-03T11:41:42;97608.59;;;6.96;83.81
71105;BME280;58760;48.716;8.962;2023-02-03T11:44:20;97608.84;;;6.93;83.33
71105;BME280;58760;48.716;8.962;2023-02-03T11:46:50;97610.28;;;6.86;83.68
71105;BME280;58760;48.716;8.962;2023-02-03T11:52:06;97608.25;;;6.90;83.91
71105;BME280;58760;48.716;8.962;2023-02-03T11:54:48;97590.94;;;7.08;83.17
71105;BME280;58760;48.716;8.962;2023-02-03T11:57:29;97582.78;;;7.00;82.68
71105;BME280;58760;48.716;8.962;2023-02-03T12:00:13;97571.88;;;6.93;81.88
71105;BME280;58760;48.716;8.962;2023-02-03T12:05:59;97574.44;;;6.83;81.46
71105;BME280;58760;48.716;8.962;2023-02-03T12:13:22;97579.47;;;6.87;81.70
71105;BME280;58760;48.716;8.962;2023-02-03T12:24:32;97576.81;;;7.29;79.46
71105;BME280;58760;48.716;8.962;2023-02-03T12:27:13;97577.53;;;7.31;78.85
71105;BME280;58760;48.716;8.962;2023-02-03T12:29:50;97582.81;;;7.31;78.43
71105;BME280;58760;48.716;8.962;2023-02-03T12:37:38;97559.59;;;7.14;78.74
71105;BME280;58760;48.716;8.962;2023-02-03T12:43:34;97560.44;;;7.15;78.14
71105;BME280;58760;48.716;8.962;2023-02-03T12:46:23;97561.56;;;7.01;78.94
71105;BME280;58760;48.716;8.962;2023-02-03T12:54:07;97570.84;;;6.96;78.55
71105;BME280;58760;48.716;8.962;2023-02-03T12:56:40;97566.75;;;6.92;79.00
71105;BME280;58760;48.716;8.962;2023-02-03T12:59:22;97552.34;;;6.96;78.43
71105;BME280;58760;48.716;8.962;2023-02-03T13:01:59;97539.38;;;6.93;78.26
71105;BME280;58760;48.716;8.962;2023-02-03T13:04:42;97517.94;;;6.86;78.20
71105;BME280;58760;48.716;8.962;2023-02-03T13:07:49;97525.41;;;6.81;77.58
71105;BME280;58760;48.716;8.962;2023-02-03T13:12:55;97528.75;;;6.83;78.72
71105;BME280;58760;48.716;8.962;2023-02-03T13:15:29;97528.13;;;6.91;78.59
71105;BME280;58760;48.716;8.962;2023-02-03T13:18:31;97518.16;;;6.94;78.21
71105;BME280;58760;48.716;8.962;2023-02-03T13:20:58;97507.59;;;7.05;78.87
71105;BME280;58760;48.716;8.962;2023-02-03T13:23:24;97505.38;;;7.10;77.93
71105;BME280;58760;48.716;8.962;2023-02-03T13:42:24;97509.75;;;7.00;77.70
71105;BME280;58760;48.716;8.962;2023-02-03T13:44:56;97502.41;;;7.04;77.47
71105;BME280;58760;48.716;8.962;2023-02-03T13:47:29;97509.50;;;7.03;77.62
71105;BME280;58760;48.716;8.962;2023-02-03T13:50:05;97501.56;;;7.03;77.28
71105;BME280;58760;48.716;8.962;2023-02-03T13:52:40;97495.13;;;6.96;78.33
71105;BME280;58760;48.716;8.962;2023-02-03T13:57:53;97506.19;;;6.90;78.81
71105;BME280;58760;48.716;8.962;2023-02-03T14:05:53;97520.47;;;6.88;79.05
71105;BME280;58760;48.716;8.962;2023-02-03T14:16:43;97517.53;;;6.70;79.54
71105;BME280;58760;48.716;8.962;2023-02-03T14:19:52;97521.59;;;6.74;80.09
71105;BME280;58760;48.716;8.962;2023-02-03T14:22:04;97530.84;;;6.68;80.47
71105;BME280;58760;48.716;8.962;2023-02-03T14:26:58;97522.78;;;6.70;80.70
71105;BME280;58760;48.716;8.962;2023-02-03T14:31:58;97550.75;;;6.72;80.54
71105;BME280;58760;48.716;8.962;2023-02-03T14:34:36;97535.53;;;6.65;80.80
71105;BME280;58760;48.716;8.962;2023-02-03T14:37:13;97535.28;;;6.68;80.96
71105;BME280;58760;48.716;8.962;2023-02-03T14:58:36;97547.56;;;6.47;84.04
71105;BME280;58760;48.716;8.962;2023-02-03T15:01:22;97557.63;;;6.42;84.65
71105;BME280;58760;48.716;8.962;2023-02-03T15:06:40;97564.59;;;6.31;86.05
71105;BME280;58760;48.716;8.962;2023-02-03T15:11:47;97557.91;;;6.16;87.26
71105;BME280;58760;48.716;8.962;2023-02-03T15:14:16;97557.19;;;6.14;87.40
71105;BME280;58760;48.716;8.962;2023-02-03T15:16:43;97569.28;;;6.17;87.45
71105;BME280;58760;48.716;8.962;2023-02-03T15:19:19;97572.00;;;6.15;87.08
71105;BME280;58760;48.716;8.962;2023-02-03T15:21:46;97557.19;;;6.14;87.44
71105;BME280;58760;48.716;8.962;2023-02-03T15:24:13;97548.19;;;6.06;87.79
71105;BME280;58760;48.716;8.962;2023-02-03T15:26:45;97550.81;;;6.06;87.99
71105;BME280;58760;48.716;8.962;2023-02-03T15:29:19;97535.84;;;6.06;88.01
71105;BME280;58760;48.716;8.962;2023-02-03T15:31:48;97535.38;;;6.01;88.47
71105;BME280;58760;48.716;8.962;2023-02-03T15:36:53;97548.91;;;5.97;88.83
71105;BME280;58760;48.716;8.962;2023-02-03T15:39:34;97547.81;;;5.99;88.58
71105;BME280;58760;48.716;8.962;2023-02-03T15:42:07;97550.84;;;5.95;88.61
71105;BME280;58760;48.716;8.962;2023-02-03T15:44:45;97553.94;;;6.00;89.55
71105;BME280;58760;48.716;8.962;2023-02-03T15:47:21;97556.31;;;6.03;88.43
71105;BME280;58760;48.716;8.962;2023-02-03T15:49:56;97565.06;;;6.03;87.86
71105;BME280;58760;48.716;8.962;2023-02-03T15:52:23;97563.41;;;6.02;87.88
71105;BME280;58760;48.716;8.962;2023-02-03T15:54:53;97555.50;;;6.02;88.03
71105;BME280;58760;48.716;8.962;2023-02-03T15:57:25;97564.72;;;5.97;88.66
71105;BME280;58760;48.716;8.962;2023-02-03T16:00:18;97580.41;;;5.98;88.79